Time;durP1;ratioP1;P1;durP2;ratioP2;P2;SDS_P1;SDS_P2;PMS_P1;PMS_P2;Temp;Humidity;BMP_temperature;BMP_pressure;BME280_temperature;BME280_humidity;BME280_pressure;Samples;Min_cycle;Max_cycle;Signal;HPM_P1;HPM_P2
2022/04/04 00:00:08;;;;;;;13.60;8.60;;;6.20;51.30;;;;;;5045886;28;21083;-44
2022/04/04 00:02:33;;;;;;;11.60;8.43;;;6.20;51.30;;;;;;5048135;28;20442;-45
2022/04/04 00:04:59;;;;;;;11.47;7.80;;;6.20;51.50;;;;;;5046823;28;20451;-44
2022/04/04 00:07:25;;;;;;;11.20;7.43;;;6.20;51.30;;;;;;5047216;28;20197;-46
2022/04/04 00:09:51;;;;;;;10.53;7.80;;;6.20;51.30;;;;;;5041759;28;20246;-44
2022/04/04 00:12:17;;;;;;;12.73;8.13;;;6.20;51.20;;;;;;5050887;28;20611;-44
2022/04/04 00:14:43;;;;;;;12.50;8.23;;;6.20;51.30;;;;;;5049079;28;20224;-44
2022/04/04 00:17:09;;;;;;;9.30;8.30;;;6.10;51.30;;;;;;5053181;28;20193;-44
2022/04/04 00:19:34;;;;;;;12.07;8.20;;;6.10;51.50;;;;;;5051905;28;20443;-44
2022/04/04 00:22:00;;;;;;;8.80;7.40;;;6.10;51.30;;;;;;5050801;28;20238;-44
2022/04/04 00:24:27;;;;;;;11.03;7.57;;;6.00;51.60;;;;;;5046553;28;20240;-44
2022/04/04 00:26:53;;;;;;;9.57;7.40;;;5.90;52.10;;;;;;5050526;28;20648;-44
2022/04/04 00:29:18;;;;;;;10.10;8.07;;;5.70;51.90;;;;;;5043757;28;20443;-44
2022/04/04 00:31:44;;;;;;;9.73;7.53;;;5.70;52.40;;;;;;5045132;28;20545;-46
2022/04/04 00:34:10;;;;;;;10.27;8.60;;;5.70;52.40;;;;;;5048154;28;20652;-44
2022/04/04 00:36:36;;;;;;;10.33;7.73;;;5.70;52.30;;;;;;5046580;28;20666;-44
2022/04/04 00:39:02;;;;;;;10.30;8.43;;;5.80;52.20;;;;;;5055048;28;20187;-44
2022/04/04 00:41:27;;;;;;;10.27;7.77;;;5.80;52.00;;;;;;5043655;28;20475;-44
2022/04/04 00:43:53;;;;;;;12.07;8.00;;;5.80;51.90;;;;;;5047980;28;20482;-44
2022/04/04 00:46:19;;;;;;;11.23;7.13;;;5.80;51.90;;;;;;5039200;28;20195;-44
2022/04/04 00:48:46;;;;;;;11.20;6.90;;;5.80;51.90;;;;;;5044204;28;20233;-45
2022/04/04 00:51:11;;;;;;;7.47;6.00;;;5.80;51.90;;;;;;5039816;28;20930;-44
2022/04/04 00:53:37;;;;;;;11.13;7.47;;;5.70;51.80;;;;;;5045957;28;20447;-44
2022/04/04 00:56:03;;;;;;;9.83;7.90;;;5.70;52.00;;;;;;5042586;28;20193;-45
2022/04/04 00:58:32;;;;;;;8.40;6.70;;;5.70;52.10;;;;;;5044824;28;20216;-44
2022/04/04 01:00:58;;;;;;;8.80;6.77;;;5.60;52.10;;;;;;5046365;28;20607;-44
2022/04/04 01:03:25;;;;;;;9.03;6.97;;;5.60;52.10;;;;;;5043244;28;20595;-44
2022/04/04 01:05:50;;;;;;;7.30;6.60;;;5.60;52.10;;;;;;5043487;28;20447;-44
2022/04/04 01:08:16;;;;;;;8.83;7.20;;;5.60;52.20;;;;;;5043948;28;20772;-44
2022/04/04 01:10:43;;;;;;;8.40;6.40;;;5.40;52.20;;;;;;5047388;28;20275;-44
2022/04/04 01:13:11;;;;;;;8.73;7.10;;;5.40;52.70;;;;;;5047299;28;20632;-45
2022/04/04 01:15:36;;;;;;;9.37;7.10;;;5.40;52.60;;;;;;5048859;28;20823;-44
2022/04/04 01:18:05;;;;;;;11.53;6.53;;;5.50;52.60;;;;;;5048425;28;20439;-44
2022/04/04 01:20:31;;;;;;;10.00;7.23;;;5.60;52.30;;;;;;5041959;28;20446;-44
2022/04/04 01:22:57;;;;;;;16.63;6.93;;;5.60;51.90;;;;;;5047559;28;20477;-44
2022/04/04 01:25:25;;;;;;;8.43;7.50;;;5.60;51.90;;;;;;5048317;28;20439;-45
2022/04/04 01:27:51;;;;;;;8.90;6.57;;;5.50;51.90;;;;;;5043478;28;20451;-45
2022/04/04 01:30:17;;;;;;;10.30;7.27;;;5.50;52.00;;;;;;5045140;28;20446;-44
2022/04/04 01:32:44;;;;;;;8.57;6.33;;;5.40;52.00;;;;;;5044680;28;20454;-44
2022/04/04 01:35:10;;;;;;;12.80;6.90;;;5.40;52.30;;;;;;5046579;28;20196;-45
2022/04/04 01:37:37;;;;;;;10.20;7.23;;;5.30;52.20;;;;;;5049403;28;20525;-44
2022/04/04 01:40:04;;;;;;;7.37;6.63;;;5.30;52.40;;;;;;5047210;28;20454;-45
2022/04/04 01:42:31;;;;;;;11.30;6.47;;;5.40;52.40;;;;;;5052978;28;20457;-44
2022/04/04 01:44:57;;;;;;;10.50;7.33;;;5.30;52.40;;;;;;5047155;28;20447;-46
2022/04/04 01:47:23;;;;;;;10.67;7.13;;;5.30;52.70;;;;;;5046175;28;21008;-45
2022/04/04 01:49:48;;;;;;;13.27;6.77;;;5.20;52.70;;;;;;5046986;28;20283;-45
2022/04/04 01:52:14;;;;;;;10.57;7.03;;;5.10;53.00;;;;;;5047240;28;20668;-45
2022/04/04 01:54:40;;;;;;;10.10;7.43;;;5.10;53.10;;;;;;5047498;28;20196;-44
2022/04/04 01:57:06;;;;;;;9.97;7.00;;;5.00;53.20;;;;;;5046265;28;20192;-44
2022/04/04 01:59:31;;;;;;;9.60;6.83;;;5.00;53.30;;;;;;5046515;28;20985;-44
2022/04/04 02:01:57;;;;;;;9.60;6.70;;;5.00;53.20;;;;;;5052843;28;20434;-44
2022/04/04 02:04:23;;;;;;;9.23;7.57;;;5.10;53.10;;;;;;5049119;28;20231;-44
2022/04/04 02:06:49;;;;;;;11.80;7.33;;;5.10;53.00;;;;;;5047406;28;20236;-44
2022/04/04 02:09:14;;;;;;;8.10;6.80;;;5.10;52.80;;;;;;5051803;28;20481;-44
2022/04/04 02:11:40;;;;;;;9.60;6.80;;;5.10;52.80;;;;;;5045951;28;20197;-44
2022/04/04 02:14:06;;;;;;;7.67;6.87;;;4.90;53.00;;;;;;5047048;28;20234;-44
2022/04/04 02:16:32;;;;;;;9.20;6.40;;;4.90;53.20;;;;;;5047324;28;20279;-44
2022/04/04 02:18:58;;;;;;;7.30;6.43;;;4.90;53.30;;;;;;5045283;28;20216;-44
2022/04/04 02:21:23;;;;;;;9.90;6.80;;;4.70;53.30;;;;;;5050328;28;20196;-44
2022/04/04 02:23:51;;;;;;;7.90;6.37;;;4.70;53.80;;;;;;5041487;28;20483;-44
2022/04/04 02:26:17;;;;;;;7.40;5.97;;;4.80;53.70;;;;;;5046739;28;20210;-44
2022/04/04 02:28:42;;;;;;;7.90;6.00;;;4.80;53.50;;;;;;5043766;28;20443;-44
2022/04/04 02:31:08;;;;;;;8.73;6.97;;;4.70;53.50;;;;;;5051097;28;20437;-44
2022/04/04 02:33:34;;;;;;;7.90;6.33;;;4.70;53.50;;;;;;5043705;28;20199;-44
2022/04/04 02:36:00;;;;;;;8.70;6.33;;;4.70;53.50;;;;;;5050976;28;21127;-45
2022/04/04 02:38:27;;;;;;;11.50;7.30;;;4.60;53.90;;;;;;5044664;28;20200;-44
2022/04/04 02:40:54;;;;;;;10.00;6.90;;;4.60;53.80;;;;;;5049345;28;20431;-44
2022/04/04 02:43:21;;;;;;;9.27;7.43;;;4.70;53.60;;;;;;5040524;28;21032;-43
2022/04/04 02:45:46;;;;;;;9.10;7.23;;;4.70;53.40;;;;;;5042794;28;20538;-45
2022/04/04 02:48:15;;;;;;;11.60;8.00;;;4.70;53.40;;;;;;5043702;28;20534;-43
2022/04/04 02:50:41;;;;;;;12.00;7.40;;;4.60;53.50;;;;;;5043663;28;20659;-44
2022/04/04 02:53:06;;;;;;;9.40;6.90;;;4.60;53.90;;;;;;5051116;28;20454;-46
2022/04/04 02:58:17;;;;;;;11.93;7.27;;;4.60;53.60;;;;;;5052163;28;20207;-45
2022/04/04 03:00:42;;;;;;;9.50;7.93;;;4.70;53.60;;;;;;5047350;28;20431;-44
2022/04/04 03:03:09;;;;;;;9.37;6.90;;;4.70;53.70;;;;;;5048434;28;20526;-44
2022/04/04 03:05:36;;;;;;;8.93;6.90;;;4.70;53.60;;;;;;5046561;28;20197;-45
2022/04/04 03:08:02;;;;;;;9.47;7.37;;;4.70;53.40;;;;;;5048234;28;20874;-44
2022/04/04 03:10:28;;;;;;;8.20;7.10;;;4.70;53.30;;;;;;5050421;28;20546;-45
2022/04/04 03:12:54;;;;;;;10.77;6.90;;;4.60;53.30;;;;;;5049115;28;20534;-44
2022/04/04 03:15:22;;;;;;;10.50;6.93;;;4.60;53.30;;;;;;5048108;28;20656;-44
2022/04/04 03:17:51;;;;;;;10.13;7.90;;;4.60;53.30;;;;;;5048585;28;20481;-44
2022/04/04 03:20:19;;;;;;;12.27;8.50;;;4.60;53.40;;;;;;5045493;28;20482;-44
2022/04/04 03:22:47;;;;;;;11.60;7.60;;;4.50;53.50;;;;;;5049546;28;20475;-44
2022/04/04 03:25:14;;;;;;;10.00;7.80;;;4.50;53.80;;;;;;5042121;28;20474;-43
2022/04/04 03:27:42;;;;;;;9.57;7.60;;;4.50;53.80;;;;;;5049358;28;20443;-44
2022/04/04 03:30:15;;;;;;;9.37;7.70;;;4.40;53.90;;;;;;5047268;28;20501;-43
2022/04/04 03:32:41;;;;;;;12.70;8.30;;;4.40;53.90;;;;;;5047898;28;20455;-46
2022/04/04 03:35:07;;;;;;;10.30;7.70;;;4.40;53.90;;;;;;5047155;28;20439;-43
2022/04/04 03:37:34;;;;;;;11.40;8.30;;;4.20;54.00;;;;;;5049955;28;20509;-43
2022/04/04 03:40:00;;;;;;;14.07;8.50;;;4.20;54.50;;;;;;5048605;28;20450;-43
2022/04/04 03:42:26;;;;;;;12.17;8.70;;;4.00;54.70;;;;;;5044945;28;20448;-43
2022/04/04 03:44:51;;;;;;;11.23;9.17;;;4.10;55.10;;;;;;5051233;28;20435;-43
2022/04/04 03:47:17;;;;;;;13.57;9.23;;;4.20;54.80;;;;;;5047457;28;20199;-43
2022/04/04 03:49:43;;;;;;;13.17;9.13;;;4.30;54.50;;;;;;5043905;28;20250;-43
2022/04/04 03:52:09;;;;;;;12.00;9.47;;;4.20;54.40;;;;;;5045723;28;20242;-43
2022/04/04 03:54:35;;;;;;;11.10;8.87;;;4.30;54.50;;;;;;5056251;28;20203;-46
2022/04/04 03:57:02;;;;;;;12.70;8.93;;;4.10;54.50;;;;;;5050313;28;20451;-44
2022/04/04 03:59:28;;;;;;;14.83;9.70;;;4.20;54.80;;;;;;5048992;28;20443;-43
2022/04/04 04:01:54;;;;;;;11.27;9.07;;;4.00;54.70;;;;;;5054318;28;20506;-43
2022/04/04 04:04:20;;;;;;;12.50;9.33;;;4.00;55.10;;;;;;5045242;28;20228;-43
2022/04/04 04:06:45;;;;;;;11.40;9.90;;;3.90;55.40;;;;;;5049499;28;20200;-43
2022/04/04 04:09:12;;;;;;;14.20;10.90;;;3.90;55.40;;;;;;5060120;28;20487;-43
2022/04/04 04:11:37;;;;;;;14.30;9.67;;;3.90;55.30;;;;;;5046594;28;20668;-43
2022/04/04 04:14:03;;;;;;;10.77;9.50;;;4.00;55.50;;;;;;5047906;28;20454;-43
2022/04/04 04:16:29;;;;;;;13.80;9.60;;;4.10;55.20;;;;;;5043264;28;20285;-43
2022/04/04 04:18:55;;;;;;;12.87;10.30;;;3.80;55.10;;;;;;5047599;28;20458;-43
2022/04/04 04:21:21;;;;;;;14.73;10.90;;;3.70;55.40;;;;;;5048490;28;20817;-43
2022/04/04 04:23:47;;;;;;;12.87;9.30;;;3.50;56.00;;;;;;5056956;28;20366;-43
2022/04/04 04:26:15;;;;;;;10.60;9.07;;;3.50;56.10;;;;;;5049057;28;20545;-43
2022/04/04 04:28:45;;;;;;;11.43;9.30;;;3.50;56.20;;;;;;5049118;28;20204;-43
2022/04/04 04:31:11;;;;;;;13.23;9.80;;;3.50;56.40;;;;;;5046861;28;20443;-43
2022/04/04 04:33:37;;;;;;;12.73;10.10;;;3.30;56.60;;;;;;5046337;28;20443;-43
2022/04/04 04:36:03;;;;;;;10.87;9.10;;;3.40;56.70;;;;;;5046849;28;20439;-44
2022/04/04 04:38:30;;;;;;;13.50;9.03;;;3.50;56.70;;;;;;5047534;28;20315;-43
2022/04/04 04:40:56;;;;;;;12.50;9.07;;;3.60;56.40;;;;;;5048246;28;20243;-43
2022/04/04 04:43:21;;;;;;;12.83;9.40;;;3.50;56.20;;;;;;5048939;28;20518;-43
2022/04/04 04:45:47;;;;;;;13.10;10.43;;;3.40;56.60;;;;;;5042144;28;20196;-44
2022/04/04 04:48:13;;;;;;;12.47;9.80;;;3.30;57.40;;;;;;5048729;28;20187;-43
2022/04/04 04:50:38;;;;;;;14.70;10.80;;;3.40;56.80;;;;;;5027758;28;20189;-44
2022/04/04 04:53:04;;;;;;;15.20;10.63;;;3.30;56.80;;;;;;5045880;28;20508;-43
2022/04/04 04:55:30;;;;;;;11.97;9.23;;;3.50;56.80;;;;;;5049390;28;20792;-43
2022/04/04 04:57:57;;;;;;;11.80;8.80;;;3.50;56.20;;;;;;5052255;28;21009;-43
2022/04/04 05:00:26;;;;;;;13.30;10.23;;;3.50;56.20;;;;;;5047205;28;20455;-43
2022/04/04 05:05:38;;;;;;;9.93;8.67;;;3.10;57.00;;;;;;5044565;28;20820;-43
2022/04/04 05:08:05;;;;;;;11.43;9.50;;;3.00;57.50;;;;;;5046702;28;20441;-43
2022/04/04 05:10:31;;;;;;;12.03;9.47;;;2.90;57.70;;;;;;5051719;28;20458;-43
2022/04/04 05:12:56;;;;;;;11.63;10.43;;;3.20;57.80;;;;;;5051158;28;20934;-44
2022/04/04 05:15:23;;;;;;;15.80;9.67;;;3.40;57.20;;;;;;5045770;28;20193;-43
2022/04/04 05:17:52;;;;;;;18.27;9.77;;;3.40;56.60;;;;;;5045777;28;20187;-44
2022/04/04 05:20:21;;;;;;;15.60;7.87;;;3.20;56.70;;;;;;5046026;28;20444;-43
2022/04/04 05:22:47;;;;;;;13.30;10.80;;;3.30;59.80;;;;;;5046691;28;20489;-42
2022/04/04 05:25:13;;;;;;;10.97;9.20;;;3.80;62.80;;;;;;5044911;28;20479;-43
2022/04/04 05:27:39;;;;;;;14.57;10.00;;;4.20;59.90;;;;;;5045935;28;20446;-44
2022/04/04 05:30:06;;;;;;;13.93;10.00;;;4.60;60.00;;;;;;5047865;28;20302;-43
2022/04/04 05:32:32;;;;;;;11.23;8.53;;;5.10;59.00;;;;;;5050301;28;20446;-44
2022/04/04 05:34:57;;;;;;;15.10;10.13;;;5.50;57.70;;;;;;5046254;28;20457;-47
2022/04/04 05:37:25;;;;;;;11.27;9.57;;;5.60;55.30;;;;;;5048615;28;20184;-43
2022/04/04 05:39:51;;;;;;;13.23;9.53;;;5.30;52.60;;;;;;5047099;28;20214;-46
2022/04/04 05:42:16;;;;;;;12.03;9.40;;;5.00;52.70;;;;;;5041470;28;20513;-44
2022/04/04 05:44:42;;;;;;;11.43;9.57;;;4.80;52.90;;;;;;5046183;28;20491;-44
2022/04/04 05:47:09;;;;;;;14.37;9.20;;;4.40;53.40;;;;;;5047130;28;20207;-43
2022/04/04 05:49:35;;;;;;;13.13;9.80;;;4.30;53.90;;;;;;5047649;28;20223;-44
2022/04/04 05:52:01;;;;;;;14.17;9.40;;;4.10;54.50;;;;;;5048922;28;20435;-44
2022/04/04 05:54:26;;;;;;;13.53;9.30;;;4.10;54.50;;;;;;5059550;28;20979;-44
2022/04/04 05:56:52;;;;;;;13.00;9.80;;;4.00;54.80;;;;;;5047758;28;20219;-44
2022/04/04 05:59:18;;;;;;;12.10;9.60;;;3.90;55.00;;;;;;5048480;28;20664;-44
2022/04/04 06:01:43;;;;;;;12.30;10.00;;;4.00;55.40;;;;;;5049299;28;20485;-45
2022/04/04 06:04:09;;;;;;;13.70;10.10;;;4.00;55.60;;;;;;5048373;28;20311;-45
2022/04/04 06:06:35;;;;;;;13.73;9.43;;;4.10;55.40;;;;;;5048835;28;20196;-44
2022/04/04 06:09:00;;;;;;;16.00;10.37;;;4.00;55.30;;;;;;5048129;28;20211;-46
2022/04/04 06:11:26;;;;;;;15.43;11.77;;;3.70;56.00;;;;;;5048581;28;20238;-44
2022/04/04 06:13:52;;;;;;;12.73;10.17;;;3.90;56.10;;;;;;5048695;28;20265;-45
2022/04/04 06:16:17;;;;;;;13.03;9.53;;;3.90;56.10;;;;;;5047992;28;20192;-44
2022/04/04 06:18:43;;;;;;;11.57;9.10;;;4.00;56.10;;;;;;5049725;28;20195;-44
2022/04/04 06:21:09;;;;;;;9.40;7.93;;;4.00;55.90;;;;;;5048036;28;20192;-45
2022/04/04 06:23:36;;;;;;;10.13;8.90;;;4.20;55.80;;;;;;5047954;28;20236;-44
2022/04/04 06:26:04;;;;;;;11.70;8.80;;;4.10;55.50;;;;;;5047027;28;21083;-45
2022/04/04 06:28:31;;;;;;;10.40;8.87;;;4.30;55.70;;;;;;5047573;28;20940;-44
2022/04/04 06:30:58;;;;;;;10.67;8.03;;;4.20;55.40;;;;;;5048987;28;20423;-46
2022/04/04 06:33:23;;;;;;;11.47;9.47;;;4.20;55.30;;;;;;5053165;28;20438;-44
2022/04/04 06:35:49;;;;;;;12.43;9.00;;;4.10;55.20;;;;;;5052799;28;20965;-44
2022/04/04 06:38:18;;;;;;;12.53;9.17;;;4.20;55.10;;;;;;5052007;28;20216;-44
2022/04/04 06:40:49;;;;;;;10.77;9.43;;;4.00;55.80;;;;;;5052233;28;20192;-44
2022/04/04 06:43:17;;;;;;;11.47;9.20;;;4.30;55.80;;;;;;5053435;28;20846;-44
2022/04/04 06:45:43;;;;;;;14.80;8.47;;;4.50;55.60;;;;;;5051665;28;20435;-44
2022/04/04 06:48:09;;;;;;;13.93;9.73;;;4.70;56.20;;;;;;5052822;28;20446;-45
2022/04/04 06:50:35;;;;;;;11.33;9.30;;;5.10;55.40;;;;;;5052689;28;20426;-45
2022/04/04 06:53:00;;;;;;;10.00;8.30;;;5.40;53.70;;;;;;5053082;28;20534;-44
2022/04/04 06:55:26;;;;;;;11.80;8.93;;;4.90;53.10;;;;;;5051738;28;20687;-45
2022/04/04 06:57:52;;;;;;;8.87;7.97;;;5.10;54.40;;;;;;5053248;28;20196;-44
2022/04/04 07:00:17;;;;;;;10.63;8.00;;;5.20;54.10;;;;;;5052655;28;20264;-44
2022/04/04 07:02:46;;;;;;;11.00;7.73;;;5.50;53.40;;;;;;5053016;28;20258;-45
2022/04/04 07:05:11;;;;;;;9.90;7.67;;;5.80;52.10;;;;;;5050222;28;20207;-45
2022/04/04 07:07:37;;;;;;;11.27;8.17;;;6.20;51.80;;;;;;5052985;28;20517;-45
2022/04/04 07:10:03;;;;;;;11.93;8.50;;;6.50;50.90;;;;;;5052436;28;20273;-44
2022/04/04 07:12:29;;;;;;;8.30;6.90;;;6.60;49.70;;;;;;5052735;28;20216;-44
2022/04/04 07:14:55;;;;;;;10.20;7.50;;;6.70;49.40;;;;;;5052261;28;20891;-44
2022/04/04 07:17:21;;;;;;;9.03;8.00;;;6.60;49.70;;;;;;5051661;28;20431;-45
2022/04/04 07:19:47;;;;;;;9.57;8.57;;;6.90;49.80;;;;;;5052140;28;20446;-44
2022/04/04 07:22:15;;;;;;;9.80;7.70;;;7.10;48.00;;;;;;5050246;28;20553;-44
2022/04/04 07:24:40;;;;;;;11.80;8.07;;;6.60;48.40;;;;;;5045706;28;20235;-45
2022/04/04 07:27:06;;;;;;;15.13;9.70;;;6.40;49.40;;;;;;5050560;28;20431;-45
2022/04/04 07:29:31;;;;;;;17.43;11.07;;;6.50;50.00;;;;;;5049938;28;20562;-44
2022/04/04 07:31:58;;;;;;;15.47;9.57;;;6.80;49.90;;;;;;5051295;28;20561;-45
2022/04/04 07:34:24;;;;;;;8.27;7.13;;;7.20;49.40;;;;;;5048875;28;20656;-44
2022/04/04 07:36:49;;;;;;;13.77;7.97;;;7.50;48.00;;;;;;5052031;28;20439;-45
2022/04/04 07:39:15;;;;;;;8.83;6.80;;;7.90;47.00;;;;;;5050433;28;20200;-45
2022/04/04 07:41:40;;;;;;;8.07;7.23;;;8.20;46.60;;;;;;5051381;28;20275;-45
2022/04/04 07:44:06;;;;;;;8.50;7.60;;;8.30;44.70;;;;;;5049070;28;20641;-45
2022/04/04 07:46:32;;;;;;;7.60;6.80;;;8.50;44.30;;;;;;5051524;28;20192;-44
2022/04/04 07:48:58;;;;;;;8.93;6.80;;;8.40;43.50;;;;;;5051861;28;20201;-45
2022/04/04 07:51:25;;;;;;;9.57;7.00;;;8.10;44.00;;;;;;5049974;28;20204;-44
2022/04/04 07:53:50;;;;;;;7.40;6.70;;;8.30;44.40;;;;;;5050649;28;20445;-45
2022/04/04 07:56:16;;;;;;;12.70;8.80;;;8.70;43.30;;;;;;5049711;28;20431;-45
2022/04/04 07:58:42;;;;;;;8.80;7.07;;;8.90;43.10;;;;;;5051027;28;20207;-45
2022/04/04 08:01:08;;;;;;;10.00;7.60;;;8.90;42.90;;;;;;5049352;28;20193;-45
2022/04/04 08:03:34;;;;;;;8.17;7.07;;;9.00;43.40;;;;;;5051497;28;20491;-44
2022/04/04 08:05:59;;;;;;;9.63;7.37;;;9.30;43.60;;;;;;5049274;28;20687;-46
2022/04/04 08:08:25;;;;;;;10.83;8.67;;;9.40;43.40;;;;;;5050896;28;20431;-45
2022/04/04 08:10:51;;;;;;;9.80;7.70;;;9.60;43.20;;;;;;5056357;28;20196;-45
2022/04/04 08:13:17;;;;;;;9.90;7.80;;;9.20;42.80;;;;;;5050557;28;20189;-44
2022/04/04 08:15:44;;;;;;;8.57;7.67;;;8.80;44.20;;;;;;5048130;28;20221;-45
2022/04/04 08:18:09;;;;;;;9.47;8.13;;;8.70;45.20;;;;;;5048878;28;20442;-45
2022/04/04 08:20:35;;;;;;;11.60;9.00;;;8.80;45.00;;;;;;5050623;28;20443;-46
2022/04/04 08:23:00;;;;;;;8.07;7.10;;;9.10;44.60;;;;;;5049949;28;20663;-44
2022/04/04 08:25:26;;;;;;;9.00;7.23;;;8.90;43.60;;;;;;5049862;28;20316;-45
2022/04/04 08:27:52;;;;;;;7.37;6.33;;;9.40;42.80;;;;;;5048635;28;20203;-45
2022/04/04 08:30:18;;;;;;;8.00;6.90;;;9.80;41.50;;;;;;5048542;28;20200;-44
2022/04/04 08:32:44;;;;;;;9.03;6.20;;;9.80;40.00;;;;;;5050278;28;20586;-45
2022/04/04 08:35:12;;;;;;;7.10;6.40;;;9.80;39.10;;;;;;5046340;28;20493;-44
2022/04/04 08:37:41;;;;;;;7.47;6.73;;;9.90;39.50;;;;;;5049487;28;20470;-44
2022/04/04 08:40:09;;;;;;;7.30;6.60;;;10.10;38.90;;;;;;5049530;28;20773;-47
2022/04/04 08:42:35;;;;;;;7.73;6.83;;;10.40;39.50;;;;;;5049401;28;20423;-44
2022/04/04 08:45:03;;;;;;;7.27;6.50;;;10.30;38.60;;;;;;5048611;28;20502;-44
2022/04/04 08:47:31;;;;;;;8.70;7.00;;;10.10;38.80;;;;;;5049902;28;20466;-45
2022/04/04 08:49:57;;;;;;;8.33;7.53;;;10.00;38.20;;;;;;5041723;28;20449;-45
2022/04/04 08:52:23;;;;;;;8.67;6.60;;;10.10;39.00;;;;;;5045441;28;20442;-45
2022/04/04 08:54:50;;;;;;;7.47;6.73;;;10.10;38.60;;;;;;5044001;28;20442;-45
2022/04/04 08:57:17;;;;;;;11.70;7.00;;;10.20;38.60;;;;;;5047791;28;20459;-44
2022/04/04 08:59:43;;;;;;;7.00;6.30;;;10.40;38.10;;;;;;5049326;28;20488;-45
2022/04/04 09:02:13;;;;;;;8.60;6.60;;;10.50;38.20;;;;;;5049266;28;20458;-46
2022/04/04 09:04:40;;;;;;;8.90;7.50;;;10.70;38.40;;;;;;5049422;28;20855;-46
2022/04/04 09:07:08;;;;;;;8.37;6.60;;;10.80;37.00;;;;;;5048158;28;20510;-46
2022/04/04 09:09:45;;;;;;;7.37;6.67;;;10.90;37.20;;;;;;5049403;28;20445;-45
2022/04/04 09:12:13;;;;;;;7.87;7.00;;;11.00;36.80;;;;;;5049822;28;20439;-45
2022/04/04 09:14:57;;;;;;;6.80;6.20;;;11.00;37.00;;;;;;5033833;28;20443;-46
2022/04/04 09:17:27;;;;;;;6.83;6.23;;;10.40;36.00;;;;;;5044642;28;20478;-44
2022/04/04 09:19:53;;;;;;;8.40;7.13;;;10.60;36.90;;;;;;5044748;28;20439;-47
2022/04/04 09:22:20;;;;;;;8.13;5.83;;;10.90;38.20;;;;;;5047624;28;20419;-46
2022/04/04 09:24:58;;;;;;;8.23;5.87;;;11.20;37.50;;;;;;5047806;28;20553;-46
2022/04/04 09:27:30;;;;;;;5.20;4.17;;;11.60;35.20;;;;;;5047366;28;20513;-47
2022/04/04 09:29:58;;;;;;;4.60;4.10;;;11.60;31.60;;;;;;5046081;28;20453;-43
2022/04/04 09:32:45;;;;;;;6.03;4.53;;;11.50;28.80;;;;;;5044349;28;20458;-46
2022/04/04 09:35:18;;;;;;;5.20;4.70;;;11.70;29.80;;;;;;5046812;28;20446;-46
2022/04/04 09:37:45;;;;;;;4.93;4.53;;;11.50;29.90;;;;;;5047809;28;20450;-47
2022/04/04 09:40:15;;;;;;;5.03;4.57;;;11.60;29.40;;;;;;5045900;28;20794;-46
2022/04/04 09:42:43;;;;;;;5.90;5.30;;;11.90;30.40;;;;;;5048684;28;20443;-46
2022/04/04 09:45:13;;;;;;;6.90;5.43;;;11.80;29.50;;;;;;5046240;28;20431;-46
2022/04/04 09:47:57;;;;;;;5.57;4.97;;;11.70;29.70;;;;;;5045658;28;20437;-45
2022/04/04 09:50:45;;;;;;;5.93;5.30;;;11.30;29.40;;;;;;5040621;28;20957;-47
2022/04/04 09:53:38;;;;;;;7.50;5.23;;;11.00;29.80;;;;;;5040875;28;20445;-46
2022/04/04 09:56:05;;;;;;;6.00;5.50;;;11.50;30.20;;;;;;5043959;28;20492;-48
2022/04/04 09:58:32;;;;;;;8.77;5.47;;;11.60;31.10;;;;;;5048885;28;20450;-46
2022/04/04 10:00:59;;;;;;;6.10;5.50;;;11.80;30.50;;;;;;5048055;28;20458;-46
2022/04/04 10:03:25;;;;;;;7.00;6.40;;;11.70;29.80;;;;;;5048487;28;21013;-46
2022/04/04 10:06:05;;;;;;;5.90;5.40;;;11.90;30.00;;;;;;5047772;28;20435;-45
2022/04/04 10:08:32;;;;;;;5.70;5.20;;;12.10;30.10;;;;;;5052540;28;20821;-50
2022/04/04 10:10:58;;;;;;;4.73;4.33;;;12.30;30.50;;;;;;5053112;28;20918;-46
2022/04/04 10:13:25;;;;;;;5.70;5.10;;;12.00;29.00;;;;;;5053379;28;20529;-46
2022/04/04 10:15:52;;;;;;;5.37;4.90;;;12.00;28.60;;;;;;5032675;28;20879;-46
2022/04/04 10:18:19;;;;;;;6.77;5.30;;;12.00;29.10;;;;;;5048755;28;20810;-47
2022/04/04 10:20:52;;;;;;;5.90;5.40;;;11.90;29.20;;;;;;5051069;28;20431;-46
2022/04/04 10:23:18;;;;;;;5.63;5.13;;;11.70;29.00;;;;;;5043511;28;20978;-46
2022/04/04 10:25:44;;;;;;;5.80;5.17;;;11.90;29.70;;;;;;5051589;28;20441;-45
2022/04/04 10:28:24;;;;;;;6.03;5.63;;;12.20;29.50;;;;;;5051846;28;20450;-44
2022/04/04 10:30:50;;;;;;;5.77;5.27;;;12.40;30.00;;;;;;5049299;28;20223;-44
2022/04/04 10:33:22;;;;;;;5.63;4.97;;;12.50;29.20;;;;;;5050766;28;20951;-46
2022/04/04 10:36:08;;;;;;;6.37;5.77;;;12.60;29.50;;;;;;5048251;28;20724;-44
2022/04/04 10:38:46;;;;;;;6.00;5.50;;;13.00;29.20;;;;;;5051903;28;20489;-44
2022/04/04 10:41:15;;;;;;;5.47;5.00;;;13.00;28.80;;;;;;5050282;28;20794;-48
2022/04/04 10:43:46;;;;;;;6.67;5.67;;;12.70;29.00;;;;;;5053887;28;20482;-45
2022/04/04 10:46:13;;;;;;;6.90;5.90;;;12.70;29.60;;;;;;5051007;28;20843;-47
2022/04/04 10:48:50;;;;;;;6.07;5.57;;;13.00;30.30;;;;;;5050980;28;20812;-44
2022/04/04 10:51:20;;;;;;;5.63;5.23;;;13.40;29.80;;;;;;5047606;28;20533;-44
2022/04/04 10:54:02;;;;;;;6.20;5.60;;;13.30;29.60;;;;;;5053021;28;20972;-45
2022/04/04 10:56:35;;;;;;;6.03;5.53;;;13.00;29.40;;;;;;5047770;28;20443;-44
2022/04/04 10:59:16;;;;;;;6.00;5.50;;;13.30;29.70;;;;;;5052540;28;20431;-44
2022/04/04 11:01:48;;;;;;;6.97;6.27;;;13.50;30.20;;;;;;5050159;28;20434;-47
2022/04/04 11:04:31;;;;;;;6.83;6.23;;;13.20;29.80;;;;;;5052053;28;20486;-48
2022/04/04 11:09:56;;;;;;;7.10;6.40;;;13.30;30.00;;;;;;5049201;28;20450;-46
2022/04/04 11:12:24;;;;;;;8.23;5.83;;;13.20;30.50;;;;;;5051895;28;20968;-44
2022/04/04 11:15:05;;;;;;;8.20;6.13;;;13.60;30.80;;;;;;5061383;28;20447;-44
2022/04/04 11:17:33;;;;;;;6.80;6.20;;;13.80;30.50;;;;;;5051857;28;20474;-44
2022/04/04 11:20:09;;;;;;;8.00;7.00;;;13.40;31.20;;;;;;5045209;28;20854;-48
2022/04/04 11:22:43;;;;;;;7.10;6.50;;;13.20;30.70;;;;;;5051615;28;20818;-46
2022/04/04 11:25:15;;;;;;;7.63;6.70;;;13.20;30.90;;;;;;5042364;28;20877;-48
2022/04/04 11:27:40;;;;;;;7.83;5.63;;;13.30;30.80;;;;;;5051281;28;20443;-45
2022/04/04 11:30:07;;;;;;;5.93;5.30;;;13.40;31.30;;;;;;5051072;28;20512;-46
2022/04/04 11:32:34;;;;;;;6.23;5.73;;;13.60;31.20;;;;;;5052108;28;20231;-44
2022/04/04 11:35:14;;;;;;;5.90;5.40;;;13.90;30.90;;;;;;5050155;28;20867;-45
2022/04/04 11:37:45;;;;;;;6.07;5.47;;;13.90;29.50;;;;;;5049908;28;20442;-44
2022/04/04 11:40:14;;;;;;;6.10;5.50;;;13.70;28.90;;;;;;5050820;28;20439;-45
2022/04/04 11:42:44;;;;;;;6.03;5.03;;;14.00;29.20;;;;;;5050594;28;20488;-44
2022/04/04 11:45:15;;;;;;;6.43;5.07;;;14.10;29.50;;;;;;5049308;28;20447;-44
2022/04/04 11:48:04;;;;;;;5.50;5.00;;;13.90;29.70;;;;;;5036618;28;20522;-48
2022/04/04 11:50:32;;;;;;;5.00;4.50;;;13.90;29.40;;;;;;5046593;28;20470;-44
2022/04/04 11:53:00;;;;;;;5.13;4.63;;;14.00;29.80;;;;;;5046575;28;20435;-43
2022/04/04 11:55:30;;;;;;;5.37;4.60;;;14.00;29.70;;;;;;5046371;28;20807;-45
2022/04/04 11:57:58;;;;;;;5.30;4.77;;;14.00;29.00;;;;;;5046752;28;20446;-43
2022/04/04 12:00:26;;;;;;;5.23;4.77;;;14.10;29.60;;;;;;5047945;28;20435;-44
2022/04/04 12:02:53;;;;;;;6.00;5.43;;;13.80;29.40;;;;;;5041223;28;20581;-44
2022/04/04 12:05:23;;;;;;;5.20;4.80;;;13.90;30.10;;;;;;5048776;28;20442;-43
2022/04/04 12:07:50;;;;;;;5.20;4.80;;;14.00;30.50;;;;;;5047149;28;20518;-44
2022/04/04 12:10:37;;;;;;;4.60;4.20;;;14.10;30.00;;;;;;5047661;28;20800;-43
2022/04/04 12:13:10;;;;;;;5.20;4.80;;;14.20;30.10;;;;;;5045357;28;20439;-44
2022/04/04 12:15:40;;;;;;;5.30;4.90;;;14.10;30.40;;;;;;5042390;28;20796;-43
2022/04/04 12:18:07;;;;;;;6.93;4.90;;;14.00;29.60;;;;;;5047400;28;20442;-43
2022/04/04 12:20:41;;;;;;;5.40;4.90;;;13.80;29.60;;;;;;5048945;28;20591;-43
2022/04/04 12:25:55;;;;;;;5.30;4.90;;;14.20;29.90;;;;;;5044224;28;20446;-46
2022/04/04 12:28:22;;;;;;;5.03;4.63;;;14.00;29.40;;;;;;5048713;28;20481;-44
2022/04/04 12:30:48;;;;;;;6.40;5.80;;;14.10;29.70;;;;;;5046015;28;20439;-44
2022/04/04 12:33:15;;;;;;;4.50;4.20;;;13.90;28.90;;;;;;5045086;28;21852;-46
2022/04/04 12:35:45;;;;;;;5.53;5.03;;;13.90;29.50;;;;;;5045321;28;20196;-44
2022/04/04 12:40:40;;;;;;;5.77;5.30;;;14.10;30.10;;;;;;4980944;28;20577;-46
2022/04/04 12:43:11;;;;;;;5.23;4.83;;;13.80;29.80;;;;;;4989974;28;20462;-44
2022/04/04 12:45:55;;;;;;;5.00;4.60;;;13.50;30.00;;;;;;4986987;28;20203;-45
2022/04/04 12:48:21;;;;;;;5.63;3.90;;;13.70;29.90;;;;;;4990266;28;20504;-45
2022/04/04 12:50:48;;;;;;;5.13;4.73;;;13.40;31.00;;;;;;4989896;28;21024;-45
2022/04/04 12:53:16;;;;;;;5.43;5.03;;;13.70;31.60;;;;;;4991393;28;20465;-44
2022/04/04 12:56:00;;;;;;;4.73;4.33;;;13.60;30.50;;;;;;4989941;28;20452;-47
2022/04/04 12:58:26;;;;;;;6.00;5.50;;;13.40;30.50;;;;;;4990573;28;20460;-45
2022/04/04 13:00:52;;;;;;;5.40;4.37;;;13.60;31.70;;;;;;4985324;28;20435;-45
2022/04/04 13:03:25;;;;;;;5.23;4.70;;;13.80;30.40;;;;;;4977947;28;20473;-45